Time;durP1;ratioP1;P1;durP2;ratioP2;P2;SDS_P1;SDS_P2;PMS_P1;PMS_P2;Temp;Humidity;BMP_temperature;BMP_pressure;BME280_temperature;BME280_humidity;BME280_pressure;Samples;Min_cycle;Max_cycle;Signal;HPM_P1;HPM_P2
2021/08/06 00:01:04;;;;;;;1.95;1.85;;;22.50;63.20;;;;;;1486667;39;20437;-58
2021/08/06 00:02:25;;;;;;;2.13;2.03;;;22.50;63.20;;;;;;1491731;39;20035;-57
2021/08/06 00:03:46;;;;;;;2.95;2.10;;;22.50;63.40;;;;;;1491484;39;20122;-58
2021/08/06 00:05:08;;;;;;;2.30;2.10;;;22.50;63.40;;;;;;1490891;39;20035;-57
2021/08/06 00:06:29;;;;;;;2.55;1.90;;;22.50;63.50;;;;;;1489788;39;20024;-58
2021/08/06 00:07:50;;;;;;;2.47;2.17;;;22.40;63.40;;;;;;1490788;39;20295;-58
2021/08/06 00:09:11;;;;;;;2.17;1.98;;;22.40;63.50;;;;;;1490371;39;20124;-58
2021/08/06 00:10:32;;;;;;;1.85;1.75;;;22.40;63.50;;;;;;1490988;39;20380;-58
2021/08/06 00:11:57;;;;;;;2.88;2.00;;;22.50;63.60;;;;;;1492272;39;20047;-58
2021/08/06 00:13:18;;;;;;;1.98;1.88;;;22.40;63.50;;;;;;1492191;39;20032;-58
2021/08/06 00:14:39;;;;;;;2.75;2.10;;;22.40;63.50;;;;;;1488963;39;20039;-58
2021/08/06 00:16:00;;;;;;;1.88;1.77;;;22.50;63.60;;;;;;1488122;39;20028;-60
2021/08/06 00:17:21;;;;;;;3.15;2.35;;;22.40;63.50;;;;;;1492557;39;20392;-58
2021/08/06 00:18:43;;;;;;;2.28;2.08;;;22.50;63.70;;;;;;1490639;39;20024;-57
2021/08/06 00:20:05;;;;;;;2.10;2.00;;;22.40;63.70;;;;;;1491489;39;20028;-58
2021/08/06 00:21:26;;;;;;;1.95;1.85;;;22.50;63.80;;;;;;1490823;39;20052;-60
2021/08/06 00:22:47;;;;;;;3.88;1.98;;;22.50;63.80;;;;;;1492811;39;20031;-59
2021/08/06 00:24:08;;;;;;;2.13;2.03;;;22.40;63.70;;;;;;1483679;40;20047;-60
2021/08/06 00:25:29;;;;;;;1.90;1.80;;;22.50;63.60;;;;;;1484267;39;20373;-59
2021/08/06 00:26:50;;;;;;;2.00;1.85;;;22.50;63.80;;;;;;1490159;39;20322;-60
2021/08/06 00:28:11;;;;;;;2.20;2.00;;;22.40;63.70;;;;;;1489347;39;20035;-60
2021/08/06 00:29:32;;;;;;;3.78;2.15;;;22.50;63.80;;;;;;1490669;39;20028;-60
2021/08/06 00:30:53;;;;;;;2.00;1.90;;;22.50;63.70;;;;;;1488063;39;20033;-60
2021/08/06 00:32:13;;;;;;;2.60;2.40;;;22.50;63.70;;;;;;1489670;39;20030;-60
2021/08/06 00:33:34;;;;;;;2.33;2.15;;;22.40;63.70;;;;;;1487750;40;20031;-59
2021/08/06 00:34:56;;;;;;;2.55;2.22;;;22.50;63.70;;;;;;1491191;39;20024;-59
2021/08/06 00:36:17;;;;;;;2.42;2.22;;;22.50;63.60;;;;;;1488580;39;20038;-59
2021/08/06 00:37:37;;;;;;;1.75;1.65;;;22.50;63.50;;;;;;1489708;39;20034;-59
2021/08/06 00:38:59;;;;;;;3.53;2.33;;;22.50;63.50;;;;;;1490372;39;20076;-59
2021/08/06 00:40:24;;;;;;;1.98;1.88;;;22.50;63.40;;;;;;1492598;39;20019;-60
2021/08/06 00:41:45;;;;;;;2.97;2.20;;;22.50;63.40;;;;;;1490025;39;20120;-59
2021/08/06 00:43:06;;;;;;;2.30;2.10;;;22.50;63.20;;;;;;1491757;39;20039;-59
2021/08/06 00:44:27;;;;;;;3.53;2.20;;;22.40;63.10;;;;;;1489959;39;20123;-59
2021/08/06 00:45:49;;;;;;;2.05;1.95;;;22.40;63.20;;;;;;1485867;39;20133;-60
2021/08/06 00:47:10;;;;;;;2.30;2.10;;;22.40;63.10;;;;;;1484239;39;20031;-59
2021/08/06 00:48:31;;;;;;;3.05;2.20;;;22.40;63.00;;;;;;1488439;39;20448;-60
2021/08/06 00:49:52;;;;;;;2.30;2.10;;;22.40;62.90;;;;;;1490539;39;20023;-60
2021/08/06 00:51:13;;;;;;;1.83;1.73;;;22.40;62.90;;;;;;1491685;39;20032;-59
2021/08/06 00:52:35;;;;;;;2.30;2.10;;;22.40;62.70;;;;;;1490526;39;20072;-59
2021/08/06 00:53:56;;;;;;;2.33;2.15;;;22.40;62.70;;;;;;1491218;39;20047;-60
2021/08/06 00:55:17;;;;;;;2.63;2.13;;;22.40;62.90;;;;;;1487154;39;20407;-60
2021/08/06 00:56:38;;;;;;;1.92;1.80;;;22.40;62.90;;;;;;1488696;39;20016;-60
2021/08/06 00:57:59;;;;;;;5.18;2.00;;;22.40;62.80;;;;;;1489895;39;20050;-59
2021/08/06 00:59:20;;;;;;;2.10;1.90;;;22.40;62.70;;;;;;1491265;39;20024;-60
2021/08/06 01:00:41;;;;;;;3.53;2.20;;;22.40;62.80;;;;;;1488731;39;20072;-60
2021/08/06 01:02:10;;;;;;;1.98;1.77;;;22.40;62.80;;;;;;1490472;39;20035;-59
2021/08/06 01:03:55;;;;;;;2.30;1.90;;;22.40;63.10;;;;;;1490759;39;20032;-60
2021/08/06 01:05:18;;;;;;;1.95;1.80;;;22.40;63.20;;;;;;1492569;39;20035;-59
2021/08/06 01:06:58;;;;;;;2.20;2.00;;;22.40;62.60;;;;;;1490011;39;20052;-59
2021/08/06 01:08:25;;;;;;;2.03;1.90;;;22.40;62.70;;;;;;1489179;39;20032;-60
2021/08/06 01:09:56;;;;;;;1.90;1.80;;;22.40;62.40;;;;;;1489384;39;20032;-59
2021/08/06 01:11:21;;;;;;;2.25;1.75;;;22.40;62.50;;;;;;1488037;39;20067;-60
2021/08/06 01:13:00;;;;;;;2.10;1.90;;;22.40;62.40;;;;;;1489526;39;20017;-59
2021/08/06 01:14:25;;;;;;;2.13;2.03;;;22.30;62.70;;;;;;1492665;39;20409;-60
2021/08/06 01:15:51;;;;;;;1.90;1.60;;;22.30;62.40;;;;;;1490582;39;20030;-59
2021/08/06 01:17:14;;;;;;;2.47;1.73;;;22.40;62.60;;;;;;1492269;39;20075;-59
2021/08/06 01:18:40;;;;;;;3.17;2.08;;;22.30;62.30;;;;;;1488093;39;20016;-59
2021/08/06 01:20:06;;;;;;;1.52;1.42;;;22.30;62.20;;;;;;1491906;39;20089;-59
2021/08/06 01:21:29;;;;;;;2.10;2.00;;;22.30;62.10;;;;;;1488099;39;20028;-59
2021/08/06 01:23:03;;;;;;;2.13;1.80;;;22.30;62.00;;;;;;1490490;39;20281;-60
2021/08/06 01:24:25;;;;;;;2.05;1.70;;;22.30;62.00;;;;;;1490743;39;20028;-60
2021/08/06 01:25:58;;;;;;;4.40;2.15;;;22.30;61.80;;;;;;1489580;39;20031;-59
2021/08/06 01:27:22;;;;;;;2.65;1.70;;;22.30;62.00;;;;;;1492070;39;20031;-59
2021/08/06 01:28:46;;;;;;;1.92;1.77;;;22.30;61.80;;;;;;1492059;39;20019;-59
2021/08/06 01:30:09;;;;;;;1.70;1.60;;;22.30;61.80;;;;;;1490313;39;20046;-59
2021/08/06 01:31:30;;;;;;;2.92;1.70;;;22.30;61.70;;;;;;1491308;39;20012;-59
2021/08/06 01:32:55;;;;;;;2.50;1.88;;;22.30;61.70;;;;;;1486457;39;20024;-58
2021/08/06 01:34:16;;;;;;;2.05;1.85;;;22.30;61.70;;;;;;1489910;39;20031;-59
2021/08/06 01:35:37;;;;;;;2.17;2.00;;;22.30;61.50;;;;;;1488271;39;20027;-59
2021/08/06 01:36:58;;;;;;;1.70;1.60;;;22.30;61.50;;;;;;1491294;39;20043;-59
2021/08/06 01:38:19;;;;;;;2.35;1.65;;;22.20;61.40;;;;;;1491676;39;20027;-59
2021/08/06 01:39:40;;;;;;;1.92;1.65;;;22.20;61.40;;;;;;1490274;39;20078;-59
2021/08/06 01:41:31;;;;;;;2.40;1.60;;;22.20;61.40;;;;;;1492321;39;20358;-59
2021/08/06 01:42:56;;;;;;;2.58;1.63;;;22.20;61.60;;;;;;1489289;39;20028;-59
2021/08/06 01:44:28;;;;;;;2.08;1.80;;;22.20;61.50;;;;;;1492126;39;20046;-59
2021/08/06 01:45:57;;;;;;;1.65;1.55;;;22.20;61.40;;;;;;1490048;39;20020;-58
2021/08/06 01:47:34;;;;;;;1.88;1.70;;;22.20;61.40;;;;;;1492098;39;20036;-59
2021/08/06 01:49:03;;;;;;;2.30;2.10;;;22.20;61.60;;;;;;1491218;39;20038;-59
2021/08/06 01:50:28;;;;;;;2.30;1.90;;;22.20;61.40;;;;;;1491377;39;20105;-58
2021/08/06 01:51:56;;;;;;;2.08;1.80;;;22.20;61.40;;;;;;1485494;39;20035;-58
2021/08/06 01:53:19;;;;;;;2.33;1.80;;;22.20;61.40;;;;;;1488451;39;20043;-58
2021/08/06 01:54:42;;;;;;;2.70;1.55;;;22.10;61.20;;;;;;1490938;39;20097;-58
2021/08/06 01:56:06;;;;;;;2.53;1.70;;;22.20;61.20;;;;;;1490716;39;20043;-59
2021/08/06 01:57:30;;;;;;;1.98;1.80;;;22.20;61.30;;;;;;1490402;39;20108;-58
2021/08/06 01:58:54;;;;;;;2.33;1.70;;;22.20;61.40;;;;;;1490925;39;20031;-58
2021/08/06 02:00:15;;;;;;;4.15;1.80;;;22.10;61.30;;;;;;1491732;39;20051;-58
2021/08/06 02:01:38;;;;;;;1.75;1.65;;;22.10;61.40;;;;;;1488924;39;20063;-59
2021/08/06 02:02:59;;;;;;;2.70;1.75;;;22.10;61.50;;;;;;1488445;39;20051;-58
2021/08/06 02:04:22;;;;;;;3.17;1.80;;;22.10;61.50;;;;;;1491264;39;20032;-58
2021/08/06 02:05:43;;;;;;;1.85;1.55;;;22.10;61.40;;;;;;1490326;39;20026;-58
2021/08/06 02:07:04;;;;;;;1.85;1.70;;;22.20;61.50;;;;;;1491213;39;20024;-59
2021/08/06 02:08:25;;;;;;;4.00;1.85;;;22.10;61.40;;;;;;1485716;39;20031;-59
2021/08/06 02:09:46;;;;;;;3.40;1.55;;;22.10;61.40;;;;;;1488983;39;20025;-58
2021/08/06 02:11:07;;;;;;;2.10;1.85;;;22.10;61.50;;;;;;1490391;39;20046;-59
2021/08/06 02:12:29;;;;;;;2.28;1.52;;;22.10;61.60;;;;;;1491420;39;20024;-59
2021/08/06 02:13:50;;;;;;;3.38;1.98;;;22.10;61.70;;;;;;1488741;39;20040;-59
2021/08/06 02:15:13;;;;;;;1.73;1.63;;;22.10;61.80;;;;;;1492266;39;20032;-61
2021/08/06 02:16:35;;;;;;;2.13;1.80;;;22.10;62.00;;;;;;1491755;39;20027;-58
2021/08/06 02:17:57;;;;;;;2.67;2.00;;;22.10;62.20;;;;;;1490268;39;20036;-58
2021/08/06 02:19:20;;;;;;;2.28;1.73;;;22.20;62.60;;;;;;1492183;39;20063;-58
2021/08/06 02:20:43;;;;;;;2.05;1.63;;;22.10;62.70;;;;;;1491569;39;20031;-58
2021/08/06 02:22:06;;;;;;;2.00;1.90;;;22.10;62.80;;;;;;1491647;39;20032;-58
2021/08/06 02:23:28;;;;;;;2.42;1.92;;;22.10;63.00;;;;;;1492580;39;20024;-58
2021/08/06 02:24:49;;;;;;;3.30;1.60;;;22.10;62.90;;;;;;1489310;39;20284;-59
2021/08/06 02:26:13;;;;;;;2.22;1.75;;;22.10;62.90;;;;;;1487801;39;20059;-59
2021/08/06 02:27:35;;;;;;;3.22;1.80;;;22.10;63.10;;;;;;1486365;40;20052;-58
2021/08/06 02:28:57;;;;;;;2.85;2.08;;;22.10;63.10;;;;;;1487462;39;20039;-58
2021/08/06 02:30:21;;;;;;;2.10;1.48;;;22.00;63.10;;;;;;1490446;39;20039;-60
2021/08/06 02:31:43;;;;;;;2.40;1.80;;;22.10;63.40;;;;;;1489001;39;20102;-59
2021/08/06 02:33:05;;;;;;;1.85;1.75;;;22.00;63.60;;;;;;1492280;39;20044;-59
2021/08/06 02:34:29;;;;;;;2.35;1.58;;;22.00;63.70;;;;;;1492301;39;20028;-60
2021/08/06 02:35:50;;;;;;;1.55;1.45;;;22.00;63.80;;;;;;1490931;39;20039;-59
2021/08/06 02:37:11;;;;;;;1.70;1.60;;;22.00;63.80;;;;;;1491127;39;20368;-59
2021/08/06 02:38:34;;;;;;;2.13;1.70;;;22.00;63.90;;;;;;1491098;39;20032;-58
2021/08/06 02:39:55;;;;;;;2.20;1.48;;;21.90;63.90;;;;;;1491465;39;20369;-58
2021/08/06 02:41:16;;;;;;;1.63;1.52;;;21.90;64.10;;;;;;1492336;39;20024;-58
2021/08/06 02:42:36;;;;;;;2.15;1.60;;;21.90;64.40;;;;;;1488471;39;20020;-60
2021/08/06 02:43:57;;;;;;;1.75;1.65;;;21.80;64.50;;;;;;1491855;39;20044;-58
2021/08/06 02:45:18;;;;;;;3.25;1.80;;;21.80;64.50;;;;;;1491201;39;20117;-58
2021/08/06 02:46:40;;;;;;;1.63;1.52;;;21.80;64.60;;;;;;1490897;39;20027;-59
2021/08/06 02:48:01;;;;;;;1.90;1.80;;;21.80;64.90;;;;;;1491890;39;20366;-58
2021/08/06 02:49:22;;;;;;;2.33;1.88;;;21.80;65.00;;;;;;1489833;39;20015;-58
2021/08/06 02:50:44;;;;;;;3.05;1.50;;;21.80;65.10;;;;;;1486986;39;20032;-59
2021/08/06 02:52:06;;;;;;;3.85;1.60;;;21.80;65.20;;;;;;1489867;39;20053;-58
2021/08/06 02:53:27;;;;;;;3.28;1.95;;;21.80;65.40;;;;;;1490632;39;20028;-58
2021/08/06 02:54:48;;;;;;;1.70;1.60;;;21.80;65.50;;;;;;1490862;39;20031;-58
2021/08/06 02:56:09;;;;;;;2.47;1.50;;;21.80;65.60;;;;;;1490665;39;20032;-58
2021/08/06 02:57:30;;;;;;;1.75;1.65;;;21.70;65.70;;;;;;1490726;39;20040;-59
2021/08/06 02:58:51;;;;;;;4.13;1.70;;;21.70;65.80;;;;;;1489411;39;20024;-58
2021/08/06 03:00:13;;;;;;;2.67;1.88;;;21.70;65.80;;;;;;1492042;39;20372;-58
2021/08/06 03:01:33;;;;;;;2.20;2.00;;;21.70;66.00;;;;;;1491601;39;20030;-59
2021/08/06 03:02:54;;;;;;;1.98;1.77;;;21.70;66.20;;;;;;1491208;39;20043;-58
2021/08/06 03:04:15;;;;;;;2.38;1.60;;;21.70;66.20;;;;;;1490577;39;20055;-58
2021/08/06 03:05:36;;;;;;;1.88;1.65;;;21.70;66.20;;;;;;1491069;39;20056;-59
2021/08/06 03:06:57;;;;;;;2.38;1.58;;;21.70;66.20;;;;;;1492090;39;20281;-58
2021/08/06 03:08:18;;;;;;;2.55;1.55;;;21.70;66.30;;;;;;1490167;39;20024;-58
2021/08/06 03:09:39;;;;;;;2.50;1.50;;;21.70;66.30;;;;;;1488591;39;20150;-58
2021/08/06 03:11:00;;;;;;;2.42;1.90;;;21.70;66.40;;;;;;1489551;39;20032;-58
2021/08/06 03:12:21;;;;;;;2.30;2.00;;;21.70;66.50;;;;;;1491736;39;20056;-59
2021/08/06 03:13:42;;;;;;;2.67;1.70;;;21.70;66.70;;;;;;1489840;39;20106;-59
2021/08/06 03:15:03;;;;;;;1.70;1.60;;;21.70;66.70;;;;;;1486787;39;20088;-58
2021/08/06 03:16:24;;;;;;;2.00;1.80;;;21.70;66.80;;;;;;1487479;40;20068;-59
2021/08/06 03:17:46;;;;;;;3.03;1.77;;;21.70;66.90;;;;;;1493046;39;20027;-59
2021/08/06 03:19:07;;;;;;;3.05;1.90;;;21.70;66.90;;;;;;1490887;39;20035;-58
2021/08/06 03:20:28;;;;;;;1.80;1.70;;;21.70;66.90;;;;;;1491132;39;20399;-59
2021/08/06 03:21:49;;;;;;;2.17;1.58;;;21.70;66.90;;;;;;1486124;39;20321;-58
2021/08/06 03:23:10;;;;;;;1.75;1.65;;;21.70;67.00;;;;;;1490995;39;20038;-59
2021/08/06 03:24:31;;;;;;;1.65;1.52;;;21.70;67.00;;;;;;1490471;39;20035;-58
2021/08/06 03:25:52;;;;;;;2.90;1.85;;;21.70;67.10;;;;;;1490625;39;20028;-58
2021/08/06 03:27:13;;;;;;;2.20;1.92;;;21.70;67.20;;;;;;1490166;39;20035;-57
2021/08/06 03:28:34;;;;;;;3.00;1.70;;;21.70;67.20;;;;;;1492598;39;20355;-58
2021/08/06 03:29:55;;;;;;;2.88;1.90;;;21.80;67.30;;;;;;1491242;39;20096;-59
2021/08/06 03:31:15;;;;;;;1.83;1.60;;;21.70;67.20;;;;;;1490088;39;20036;-59
2021/08/06 03:32:38;;;;;;;4.07;2.13;;;21.70;67.40;;;;;;1491220;39;20088;-58
2021/08/06 03:33:59;;;;;;;3.20;1.70;;;21.70;67.60;;;;;;1489278;39;20124;-58
2021/08/06 03:35:20;;;;;;;3.17;1.80;;;21.70;67.40;;;;;;1489070;39;20036;-59
2021/08/06 03:36:41;;;;;;;3.03;1.90;;;21.70;67.50;;;;;;1489873;39;20039;-58
2021/08/06 03:38:13;;;;;;;1.60;1.50;;;21.70;67.70;;;;;;1488984;39;20028;-58
2021/08/06 03:39:34;;;;;;;3.33;1.92;;;21.70;68.20;;;;;;1486950;39;20015;-58
2021/08/06 03:40:55;;;;;;;2.00;1.65;;;21.70;67.70;;;;;;1489007;39;20039;-58
2021/08/06 03:42:16;;;;;;;6.55;1.90;;;21.70;67.80;;;;;;1486557;39;20080;-59
2021/08/06 03:43:37;;;;;;;2.88;1.50;;;21.70;68.00;;;;;;1488943;39;20017;-59
2021/08/06 03:44:58;;;;;;;4.07;1.90;;;21.70;68.10;;;;;;1491214;39;20032;-59
2021/08/06 03:46:19;;;;;;;3.15;1.58;;;21.70;68.10;;;;;;1490963;39;20028;-59
2021/08/06 03:47:40;;;;;;;3.42;1.52;;;21.70;68.10;;;;;;1489012;39;20035;-58
2021/08/06 03:49:01;;;;;;;1.63;1.40;;;21.80;68.20;;;;;;1489077;39;20038;-59
2021/08/06 03:50:22;;;;;;;3.42;2.25;;;21.70;68.30;;;;;;1491710;39;20268;-59
2021/08/06 03:51:42;;;;;;;2.92;1.80;;;21.70;68.30;;;;;;1490798;39;20031;-59
2021/08/06 03:53:04;;;;;;;2.83;1.95;;;21.70;68.40;;;;;;1489701;39;20032;-58
2021/08/06 03:54:25;;;;;;;2.35;1.80;;;21.70;68.40;;;;;;1491215;39;20342;-58
2021/08/06 03:55:46;;;;;;;2.63;1.95;;;21.70;68.40;;;;;;1492357;39;20024;-57
2021/08/06 03:57:07;;;;;;;2.10;1.55;;;21.70;68.40;;;;;;1490601;39;20032;-58
2021/08/06 03:58:28;;;;;;;4.85;1.67;;;21.70;68.40;;;;;;1489329;39;20155;-58
2021/08/06 03:59:48;;;;;;;3.30;2.20;;;21.70;68.50;;;;;;1491670;39;20265;-58
2021/08/06 04:01:09;;;;;;;2.15;1.88;;;21.70;68.50;;;;;;1490739;39;20051;-58
2021/08/06 04:02:30;;;;;;;6.03;1.80;;;21.70;68.60;;;;;;1491473;39;20031;-58
2021/08/06 04:03:51;;;;;;;1.98;1.60;;;21.70;68.70;;;;;;1489394;39;20626;-58
2021/08/06 04:05:12;;;;;;;4.20;2.10;;;21.70;68.60;;;;;;1490489;39;20035;-58
2021/08/06 04:06:34;;;;;;;6.07;1.92;;;21.70;68.70;;;;;;1490276;39;20016;-58
2021/08/06 04:07:55;;;;;;;3.45;2.00;;;21.70;68.80;;;;;;1488414;39;20094;-58
2021/08/06 04:09:17;;;;;;;2.67;1.98;;;21.70;68.80;;;;;;1487777;39;20413;-58
2021/08/06 04:10:38;;;;;;;2.80;1.60;;;21.70;68.90;;;;;;1461185;39;1100196;-58
2021/08/06 04:11:59;;;;;;;3.10;1.65;;;21.70;69.00;;;;;;1492221;39;20285;-58
2021/08/06 04:13:19;;;;;;;2.60;1.50;;;21.70;69.00;;;;;;1491212;39;20401;-58
2021/08/06 04:14:40;;;;;;;4.18;2.05;;;21.60;69.00;;;;;;1490072;39;20023;-58
2021/08/06 04:16:01;;;;;;;4.80;2.05;;;21.60;69.10;;;;;;1489657;39;20020;-58
2021/08/06 04:17:22;;;;;;;5.63;1.90;;;21.60;69.00;;;;;;1492025;39;20391;-58
2021/08/06 04:18:43;;;;;;;3.55;1.80;;;21.60;69.10;;;;;;1489890;39;20032;-58
2021/08/06 04:20:05;;;;;;;2.78;1.92;;;21.60;69.20;;;;;;1490862;39;20032;-58
2021/08/06 04:21:26;;;;;;;3.65;1.60;;;21.60;69.30;;;;;;1492468;39;20064;-58
2021/08/06 04:22:47;;;;;;;3.80;1.77;;;21.60;69.30;;;;;;1490592;39;20111;-58
2021/08/06 04:24:08;;;;;;;6.20;2.10;;;21.60;69.40;;;;;;1490034;39;20034;-58
2021/08/06 04:25:29;;;;;;;3.42;1.60;;;21.60;69.50;;;;;;1491895;39;20032;-58
2021/08/06 04:26:50;;;;;;;4.25;1.77;;;21.60;69.40;;;;;;1491650;39;20039;-58
2021/08/06 04:28:11;;;;;;;5.85;2.40;;;21.60;69.50;;;;;;1490824;39;20036;-58
2021/08/06 04:29:32;;;;;;;3.25;1.70;;;21.60;69.50;;;;;;1491215;39;20086;-58
2021/08/06 04:30:53;;;;;;;4.38;1.80;;;21.60;69.70;;;;;;1492830;39;20161;-58
2021/08/06 04:32:14;;;;;;;2.58;1.58;;;21.60;69.80;;;;;;1488848;39;20139;-59
2021/08/06 04:33:35;;;;;;;2.85;1.70;;;21.60;69.90;;;;;;1484035;40;20265;-58
2021/08/06 04:34:55;;;;;;;4.00;2.00;;;21.70;70.00;;;;;;1489922;39;20042;-58
2021/08/06 04:36:16;;;;;;;4.47;2.00;;;21.60;70.00;;;;;;1493851;39;20039;-58
2021/08/06 04:37:51;;;;;;;2.70;1.88;;;21.60;69.80;;;;;;1492522;39;20023;-58
2021/08/06 04:39:12;;;;;;;3.05;1.73;;;21.60;70.30;;;;;;1486962;39;20262;-58
2021/08/06 04:40:33;;;;;;;4.93;1.90;;;21.60;69.50;;;;;;1490481;39;20341;-58
2021/08/06 04:41:54;;;;;;;6.45;1.90;;;21.60;69.60;;;;;;1490564;39;20075;-58
2021/08/06 04:43:15;;;;;;;2.72;1.80;;;21.60;69.60;;;;;;1490935;39;20036;-58
2021/08/06 04:44:38;;;;;;;6.30;2.00;;;21.60;69.70;;;;;;1488147;40;20022;-58
2021/08/06 04:45:59;;;;;;;3.60;1.90;;;21.60;69.90;;;;;;1491320;39;20520;-58
2021/08/06 04:47:19;;;;;;;3.20;1.70;;;21.60;69.80;;;;;;1489139;39;20142;-58
2021/08/06 04:48:40;;;;;;;2.17;1.75;;;21.60;69.80;;;;;;1487524;39;20519;-57
2021/08/06 04:50:02;;;;;;;2.58;2.20;;;21.60;69.80;;;;;;1491559;39;20027;-58
2021/08/06 04:51:23;;;;;;;3.47;1.80;;;21.60;69.80;;;;;;1492876;39;20051;-58
2021/08/06 04:52:44;;;;;;;2.22;1.90;;;21.60;69.90;;;;;;1490920;39;20028;-58
2021/08/06 04:54:05;;;;;;;5.75;2.05;;;21.60;69.90;;;;;;1489662;39;20032;-58
2021/08/06 04:55:27;;;;;;;3.13;1.85;;;21.60;70.00;;;;;;1491804;39;20016;-58
2021/08/06 04:56:48;;;;;;;3.60;2.00;;;21.60;70.20;;;;;;1489533;39;20024;-58
2021/08/06 04:58:10;;;;;;;3.83;2.10;;;21.60;70.20;;;;;;1492593;39;20127;-58
2021/08/06 04:59:31;;;;;;;2.70;1.92;;;21.60;70.20;;;;;;1493359;39;20038;-58
2021/08/06 05:00:52;;;;;;;3.95;1.85;;;21.60;70.30;;;;;;1488871;39;20032;-58
2021/08/06 05:02:13;;;;;;;3.60;2.05;;;21.60;70.30;;;;;;1490840;39;20537;-58
2021/08/06 05:03:34;;;;;;;2.67;2.08;;;21.60;70.20;;;;;;1488621;39;20016;-58
2021/08/06 05:04:54;;;;;;;2.88;1.98;;;21.60;70.20;;;;;;1490254;39;20032;-58
2021/08/06 05:06:16;;;;;;;5.57;1.88;;;21.60;70.20;;;;;;1487940;39;20024;-58
2021/08/06 05:07:37;;;;;;;2.53;1.60;;;21.60;70.30;;;;;;1492207;39;20039;-58
2021/08/06 05:08:58;;;;;;;3.00;2.00;;;21.60;70.30;;;;;;1493071;39;20047;-58
2021/08/06 05:10:22;;;;;;;2.47;1.63;;;21.60;70.40;;;;;;1490779;39;20071;-58
2021/08/06 05:11:43;;;;;;;4.53;1.92;;;21.60;70.60;;;;;;1488959;39;20277;-58
2021/08/06 05:13:03;;;;;;;2.90;2.03;;;21.60;70.60;;;;;;1492124;39;20035;-59
2021/08/06 05:14:24;;;;;;;4.32;1.65;;;21.60;70.80;;;;;;1489118;39;20262;-58
2021/08/06 05:15:45;;;;;;;1.73;1.60;;;21.70;70.70;;;;;;1490104;39;20028;-58
2021/08/06 05:17:08;;;;;;;4.70;1.65;;;21.70;70.60;;;;;;1490938;39;20042;-59
2021/08/06 05:18:29;;;;;;;4.05;1.70;;;21.60;70.60;;;;;;1489711;39;20031;-58
2021/08/06 05:19:49;;;;;;;4.68;2.00;;;21.70;70.50;;;;;;1489517;39;20020;-59
2021/08/06 05:21:11;;;;;;;2.72;1.88;;;21.70;70.70;;;;;;1490065;39;20281;-58
2021/08/06 05:22:32;;;;;;;3.60;1.92;;;21.70;70.70;;;;;;1491688;39;20116;-59
2021/08/06 05:23:52;;;;;;;3.58;1.85;;;21.70;71.50;;;;;;1486141;39;20020;-59
2021/08/06 05:25:13;;;;;;;3.05;1.85;;;21.70;70.80;;;;;;1488873;39;20048;-58
2021/08/06 05:26:34;;;;;;;3.42;2.25;;;21.70;70.70;;;;;;1489524;39;20048;-58
2021/08/06 05:27:55;;;;;;;4.80;1.92;;;21.70;70.50;;;;;;1490607;39;20090;-58
2021/08/06 05:29:16;;;;;;;1.92;1.50;;;21.70;70.40;;;;;;1490685;39;20035;-58
2021/08/06 05:30:37;;;;;;;2.10;1.45;;;21.70;70.40;;;;;;1489641;39;20031;-58
2021/08/06 05:31:58;;;;;;;3.60;1.60;;;21.70;70.50;;;;;;1492755;39;20023;-58
2021/08/06 05:33:19;;;;;;;2.47;1.65;;;21.70;70.40;;;;;;1487826;39;20044;-58
2021/08/06 05:34:40;;;;;;;3.63;1.48;;;21.70;70.40;;;;;;1488996;39;20027;-57
2021/08/06 05:36:01;;;;;;;2.30;1.50;;;21.70;70.40;;;;;;1485682;39;20040;-58
2021/08/06 05:37:22;;;;;;;2.08;1.33;;;21.70;70.50;;;;;;1486645;39;20032;-57
2021/08/06 05:38:46;;;;;;;2.85;1.27;;;21.70;70.50;;;;;;1488701;39;20039;-58
2021/08/06 05:40:07;;;;;;;1.65;1.30;;;21.70;70.60;;;;;;1492045;39;20046;-58
2021/08/06 05:41:28;;;;;;;1.70;1.25;;;21.70;70.40;;;;;;1488252;39;20020;-58
2021/08/06 05:42:49;;;;;;;1.75;1.48;;;21.70;70.40;;;;;;1488770;39;20032;-58
2021/08/06 05:44:10;;;;;;;1.40;1.30;;;21.70;70.50;;;;;;1491085;39;20075;-58
2021/08/06 05:45:31;;;;;;;4.15;1.58;;;21.70;70.60;;;;;;1491382;39;20059;-57
2021/08/06 05:46:52;;;;;;;1.30;1.20;;;21.60;70.60;;;;;;1488787;39;20246;-57
2021/08/06 05:48:17;;;;;;;2.13;1.35;;;21.70;70.70;;;;;;1489069;39;20284;-58
2021/08/06 05:49:37;;;;;;;2.40;1.35;;;21.70;70.80;;;;;;1488803;39;20028;-57
2021/08/06 05:50:58;;;;;;;3.63;1.40;;;21.70;70.80;;;;;;1488247;39;20036;-57
2021/08/06 05:52:19;;;;;;;1.40;1.30;;;21.70;70.90;;;;;;1489366;39;20027;-57
2021/08/06 05:53:40;;;;;;;1.42;1.30;;;21.70;70.90;;;;;;1489848;39;20060;-58
2021/08/06 05:55:01;;;;;;;1.52;1.38;;;21.70;71.60;;;;;;1491409;39;20027;-58
2021/08/06 05:56:22;;;;;;;3.65;1.40;;;21.70;71.10;;;;;;1491274;39;20040;-58
2021/08/06 05:57:43;;;;;;;2.55;1.20;;;21.70;71.20;;;;;;1490997;39;20031;-57
2021/08/06 05:59:04;;;;;;;1.30;1.00;;;21.70;71.20;;;;;;1493991;39;20376;-57
2021/08/06 06:00:25;;;;;;;1.70;1.27;;;21.70;71.20;;;;;;1491109;39;20108;-57
2021/08/06 06:01:46;;;;;;;1.50;1.13;;;21.70;71.30;;;;;;1489244;39;20063;-58
2021/08/06 06:03:07;;;;;;;1.33;1.20;;;21.70;71.20;;;;;;1489790;39;20051;-58
2021/08/06 06:04:28;;;;;;;1.95;1.15;;;21.70;71.30;;;;;;1490866;39;20068;-58
2021/08/06 06:05:49;;;;;;;1.73;1.40;;;21.70;71.40;;;;;;1488575;39;20113;-57
2021/08/06 06:07:10;;;;;;;1.75;1.30;;;21.80;71.50;;;;;;1490983;39;20051;-57
2021/08/06 06:08:31;;;;;;;2.42;1.08;;;21.80;71.60;;;;;;1490608;39;20038;-58
2021/08/06 06:09:52;;;;;;;1.23;1.20;;;21.80;71.50;;;;;;1488276;39;20033;-58
2021/08/06 06:11:13;;;;;;;2.05;1.00;;;21.70;71.40;;;;;;1491463;39;20356;-58
2021/08/06 06:12:34;;;;;;;2.03;1.10;;;21.80;71.50;;;;;;1490096;39;20352;-58
2021/08/06 06:13:59;;;;;;;1.23;1.13;;;21.80;71.50;;;;;;1488827;39;20028;-57
2021/08/06 06:15:20;;;;;;;3.22;1.05;;;21.80;71.50;;;;;;1491364;39;20058;-58
2021/08/06 06:16:41;;;;;;;1.30;1.13;;;21.80;71.50;;;;;;1489746;39;20027;-58
2021/08/06 06:18:02;;;;;;;2.53;1.38;;;21.80;71.40;;;;;;1489507;39;20383;-57
2021/08/06 06:19:23;;;;;;;1.45;1.08;;;21.80;71.50;;;;;;1491042;39;20042;-58
2021/08/06 06:20:44;;;;;;;1.10;1.00;;;21.80;71.50;;;;;;1490008;39;20445;-58
2021/08/06 06:22:06;;;;;;;1.20;0.85;;;21.80;71.50;;;;;;1488327;39;20032;-57
2021/08/06 06:23:27;;;;;;;1.90;1.00;;;21.80;71.50;;;;;;1489243;39;20024;-58
2021/08/06 06:24:48;;;;;;;1.85;1.10;;;21.80;71.70;;;;;;1490085;39;20056;-57
2021/08/06 06:26:09;;;;;;;0.88;0.85;;;21.80;71.70;;;;;;1489355;39;20043;-58
2021/08/06 06:27:30;;;;;;;1.30;1.00;;;21.80;71.70;;;;;;1492170;39;20125;-57
2021/08/06 06:28:51;;;;;;;0.65;0.65;;;21.80;71.70;;;;;;1488554;39;20129;-58
2021/08/06 06:30:12;;;;;;;1.35;0.90;;;21.80;71.70;;;;;;1491030;39;20079;-57
2021/08/06 06:31:33;;;;;;;1.50;1.40;;;21.80;71.70;;;;;;1489029;39;20024;-58
2021/08/06 06:32:55;;;;;;;1.30;1.00;;;21.80;71.90;;;;;;1491168;39;20039;-58
2021/08/06 06:34:16;;;;;;;1.20;1.10;;;21.80;72.10;;;;;;1489459;39;20034;-58
2021/08/06 06:35:37;;;;;;;1.00;0.90;;;21.80;72.00;;;;;;1489485;39;20024;-58
2021/08/06 06:36:58;;;;;;;1.17;1.00;;;21.90;72.20;;;;;;1489861;39;20024;-58
2021/08/06 06:38:19;;;;;;;1.25;0.80;;;21.90;72.20;;;;;;1490162;39;20132;-58
2021/08/06 06:39:42;;;;;;;1.65;0.90;;;21.90;72.30;;;;;;1489077;39;20015;-58
2021/08/06 06:41:03;;;;;;;1.20;1.10;;;21.90;72.40;;;;;;1489089;39;20035;-58
2021/08/06 06:42:24;;;;;;;0.73;0.73;;;21.90;72.50;;;;;;1488359;39;20060;-57
2021/08/06 06:43:45;;;;;;;1.67;0.82;;;21.90;72.40;;;;;;1489772;39;20049;-58
2021/08/06 06:45:07;;;;;;;2.53;0.80;;;21.90;72.40;;;;;;1489878;39;20027;-58
2021/08/06 06:46:28;;;;;;;3.60;1.10;;;21.90;72.30;;;;;;1490660;39;20024;-58
2021/08/06 06:47:51;;;;;;;1.98;1.00;;;22.00;72.30;;;;;;1489164;39;20657;-58
2021/08/06 06:49:12;;;;;;;1.40;0.93;;;22.00;72.40;;;;;;1491425;39;20292;-58
2021/08/06 06:50:33;;;;;;;1.23;1.00;;;22.00;72.30;;;;;;1489112;39;20105;-58
2021/08/06 06:51:54;;;;;;;1.50;0.80;;;22.00;72.40;;;;;;1490878;39;20048;-58
2021/08/06 06:53:15;;;;;;;1.35;0.82;;;22.00;72.30;;;;;;1488832;39;20129;-57
2021/08/06 06:54:36;;;;;;;0.88;0.88;;;22.10;72.00;;;;;;1488317;39;20036;-58
2021/08/06 06:55:56;;;;;;;1.52;0.98;;;22.10;71.80;;;;;;1488281;39;20036;-58
2021/08/06 06:57:17;;;;;;;2.20;1.00;;;22.10;71.60;;;;;;1489965;39;20055;-58
2021/08/06 06:58:39;;;;;;;1.23;0.80;;;22.10;71.60;;;;;;1489543;39;20389;-57
2021/08/06 06:59:59;;;;;;;1.67;0.90;;;22.10;71.50;;;;;;1492116;39;20280;-58
2021/08/06 07:01:20;;;;;;;0.82;0.80;;;22.10;71.50;;;;;;1490197;39;20027;-60
2021/08/06 07:02:41;;;;;;;1.75;0.90;;;22.10;71.60;;;;;;1490004;39;20307;-59
2021/08/06 07:04:02;;;;;;;0.80;0.80;;;22.10;71.50;;;;;;1492186;39;20043;-57
2021/08/06 07:05:23;;;;;;;0.80;0.80;;;22.20;71.70;;;;;;1490112;39;20024;-59
2021/08/06 07:06:44;;;;;;;1.20;0.77;;;22.20;71.70;;;;;;1487432;39;20060;-60
2021/08/06 07:08:05;;;;;;;0.63;0.63;;;22.20;71.70;;;;;;1488515;39;20578;-58